Terminal Aerodrome Forecast
Issued by NWS

Home | Current Version | Previous Version | Text Only | Print | Product List | Glossary On
Versions: 1 2 3 4 5 6 7 8 9 10 11 12 13 14 15 16 17 18 19 20
423
FTUS41 KGYX 282320
TAFPSM
TAF
KPSM 282320Z 2900/2924 14012KT P6SM SCT250
     FM290300 05005KT P6SM SCT250
     FM291200 06006KT P6SM BKN250
     FM291800 14012KT P6SM BKN200=

USA.gov is the U.S. government's official web portal to all federal, state and local government web resources and services.